Time;durP1;ratioP1;P1;durP2;ratioP2;P2;SDS_P1;SDS_P2;PMS_P1;PMS_P2;Temp;Humidity;BMP_temperature;BMP_pressure;BME280_temperature;BME280_humidity;BME280_pressure;Samples;Min_cycle;Max_cycle;Signal;HPM_P1;HPM_P2
2024/03/10 00:00:39;;;;;;;36.85;21.52;;;5.70;99.90;;;;;;5050635;28;20049;-71
2024/03/10 00:03:08;;;;;;;32.88;19.95;;;5.70;99.90;;;;;;5050492;28;20045;-71
2024/03/10 00:05:34;;;;;;;37.22;19.80;;;5.70;99.90;;;;;;5049396;28;20095;-71
2024/03/10 00:08:00;;;;;;;38.53;21.75;;;5.70;99.90;;;;;;5052234;28;20067;-71
2024/03/10 00:10:26;;;;;;;38.85;20.42;;;5.70;99.90;;;;;;5053932;28;20045;-71
2024/03/10 00:12:52;;;;;;;34.38;21.52;;;5.70;99.90;;;;;;5052898;28;20037;-71
2024/03/10 00:15:22;;;;;;;37.95;21.45;;;5.70;99.90;;;;;;5054219;28;20036;-71
2024/03/10 00:17:48;;;;;;;36.90;21.20;;;5.70;99.90;;;;;;5053012;28;20041;-71
2024/03/10 00:20:14;;;;;;;35.50;19.80;;;5.70;99.90;;;;;;5053794;28;20044;-71
2024/03/10 00:22:40;;;;;;;35.10;20.92;;;5.60;99.90;;;;;;5053724;28;20076;-71
2024/03/10 00:25:07;;;;;;;37.92;20.73;;;5.60;99.90;;;;;;5052790;28;20041;-71
2024/03/10 00:27:32;;;;;;;35.72;20.83;;;5.50;99.90;;;;;;5054151;28;20087;-71
2024/03/10 00:29:58;;;;;;;35.40;21.05;;;5.50;99.90;;;;;;5053803;28;20041;-71
2024/03/10 00:32:24;;;;;;;39.65;20.83;;;5.50;99.90;;;;;;5053537;28;20029;-71
2024/03/10 00:34:51;;;;;;;32.25;19.45;;;5.50;99.90;;;;;;5053812;28;20041;-71
2024/03/10 00:37:17;;;;;;;34.67;20.67;;;5.50;99.90;;;;;;5054208;28;20048;-71
2024/03/10 00:39:43;;;;;;;35.00;19.85;;;5.50;99.90;;;;;;5053663;28;20040;-72
2024/03/10 00:42:08;;;;;;;35.65;20.08;;;5.50;99.90;;;;;;5053327;28;20040;-71
2024/03/10 00:44:34;;;;;;;37.10;20.65;;;5.50;99.90;;;;;;5052739;28;20446;-72
2024/03/10 00:47:00;;;;;;;36.30;20.30;;;5.50;99.90;;;;;;5052439;28;20043;-71
2024/03/10 00:49:25;;;;;;;33.88;18.83;;;5.50;99.90;;;;;;5053237;28;20135;-72
2024/03/10 00:51:52;;;;;;;37.53;19.65;;;5.50;99.90;;;;;;5051892;28;20048;-72
2024/03/10 00:54:17;;;;;;;33.67;21.00;;;5.60;99.90;;;;;;5053743;28;20171;-72
2024/03/10 00:56:43;;;;;;;35.70;20.50;;;5.60;99.90;;;;;;5053687;28;20111;-71
2024/03/10 00:59:10;;;;;;;35.78;21.58;;;5.60;99.90;;;;;;5053358;28;20068;-71
2024/03/10 01:01:39;;;;;;;39.00;22.20;;;5.60;99.90;;;;;;5049140;28;20094;-72
2024/03/10 01:04:05;;;;;;;35.08;19.67;;;5.60;99.90;;;;;;5044937;28;20052;-72
2024/03/10 01:06:31;;;;;;;35.25;20.00;;;5.60;99.90;;;;;;5053509;28;20049;-72
2024/03/10 01:08:57;;;;;;;40.95;21.80;;;5.60;99.90;;;;;;5052793;28;20029;-71
2024/03/10 01:11:23;;;;;;;31.98;18.92;;;5.60;99.90;;;;;;5044281;28;20086;-71
2024/03/10 01:13:50;;;;;;;32.35;19.25;;;5.60;99.90;;;;;;5053273;28;20075;-71
2024/03/10 01:16:16;;;;;;;36.53;21.33;;;5.60;99.90;;;;;;5053098;28;20041;-71
2024/03/10 01:18:42;;;;;;;32.08;19.48;;;5.60;99.90;;;;;;5052776;28;20056;-70
2024/03/10 01:21:09;;;;;;;35.55;21.63;;;5.60;99.90;;;;;;5052739;28;20500;-71
2024/03/10 01:23:35;;;;;;;36.38;20.48;;;5.60;99.90;;;;;;5053080;28;20048;-71
2024/03/10 01:26:01;;;;;;;36.22;18.75;;;5.50;99.90;;;;;;5053060;28;20041;-71
2024/03/10 01:28:27;;;;;;;36.67;20.65;;;5.50;99.90;;;;;;5052608;28;20048;-71
2024/03/10 01:30:53;;;;;;;32.92;18.80;;;5.50;99.90;;;;;;5052717;28;20079;-71
2024/03/10 01:33:19;;;;;;;37.85;19.77;;;5.50;99.90;;;;;;5043916;28;20606;-71
2024/03/10 01:35:45;;;;;;;37.53;20.23;;;5.60;99.90;;;;;;5052983;28;20121;-71
2024/03/10 01:38:11;;;;;;;34.05;19.20;;;5.60;99.90;;;;;;5047132;28;20516;-71
2024/03/10 01:40:37;;;;;;;31.90;19.90;;;5.60;99.90;;;;;;5049670;28;20128;-71
2024/03/10 01:43:03;;;;;;;33.42;19.33;;;5.60;99.90;;;;;;5052265;28;20037;-71
2024/03/10 01:45:29;;;;;;;36.25;19.90;;;5.50;99.90;;;;;;5052485;28;20117;-71
2024/03/10 01:47:55;;;;;;;35.55;20.80;;;5.50;99.90;;;;;;5052684;28;20060;-71
2024/03/10 01:50:22;;;;;;;37.75;19.15;;;5.50;99.90;;;;;;5052319;28;20047;-71
2024/03/10 01:52:48;;;;;;;37.13;19.10;;;5.50;99.90;;;;;;5052050;28;20044;-71
2024/03/10 01:55:18;;;;;;;34.97;18.83;;;5.40;99.90;;;;;;5052208;28;20033;-71
2024/03/10 01:57:46;;;;;;;35.70;19.98;;;5.50;99.90;;;;;;5044036;28;20029;-71
2024/03/10 02:00:13;;;;;;;36.85;19.27;;;5.40;99.90;;;;;;5051890;28;20043;-71
2024/03/10 02:02:42;;;;;;;33.03;18.55;;;5.40;99.90;;;;;;5052027;28;20072;-71
2024/03/10 02:05:11;;;;;;;34.58;20.10;;;5.40;99.90;;;;;;5052398;28;20044;-71
2024/03/10 02:07:37;;;;;;;36.38;19.92;;;5.40;99.90;;;;;;5052489;28;20046;-71
2024/03/10 02:10:06;;;;;;;32.67;18.98;;;5.40;99.90;;;;;;5051802;28;20041;-71
2024/03/10 02:12:32;;;;;;;34.13;18.55;;;5.40;99.90;;;;;;5051702;28;20055;-71
2024/03/10 02:15:00;;;;;;;36.55;21.38;;;5.40;99.90;;;;;;5051976;28;20075;-71
2024/03/10 02:17:26;;;;;;;33.35;18.83;;;5.40;99.90;;;;;;5052149;28;20112;-71
2024/03/10 02:19:58;;;;;;;33.92;18.35;;;5.40;99.90;;;;;;5051823;28;20041;-71
2024/03/10 02:22:28;;;;;;;36.70;20.02;;;5.40;99.90;;;;;;5051397;28;20736;-71
2024/03/10 02:24:59;;;;;;;36.85;20.85;;;5.40;99.90;;;;;;5051931;28;20041;-71
2024/03/10 02:27:26;;;;;;;33.28;19.35;;;5.40;99.90;;;;;;5050492;28;20060;-71
2024/03/10 02:49:11;;;;;;;33.63;19.45;;;5.40;99.90;;;;;;5051403;28;20120;-71
2024/03/10 02:51:37;;;;;;;36.60;20.83;;;5.40;99.90;;;;;;5049799;28;20548;-71
2024/03/10 02:54:03;;;;;;;36.67;18.70;;;5.30;99.90;;;;;;5051567;28;20033;-71
2024/03/10 02:56:29;;;;;;;37.45;20.55;;;5.30;99.90;;;;;;5051285;28;20120;-71
2024/03/10 02:58:54;;;;;;;39.40;20.30;;;5.30;99.90;;;;;;5051422;28;20179;-71
2024/03/10 03:01:21;;;;;;;35.30;20.25;;;5.20;99.90;;;;;;5051006;28;20040;-71
2024/03/10 03:03:46;;;;;;;31.95;19.27;;;5.30;99.90;;;;;;5051489;28;20045;-71
2024/03/10 03:06:12;;;;;;;37.47;21.42;;;5.30;99.90;;;;;;5051360;28;20385;-71
2024/03/10 03:08:38;;;;;;;33.10;19.20;;;5.30;99.90;;;;;;5049473;28;20180;-71
2024/03/10 03:11:04;;;;;;;35.95;19.40;;;5.20;99.90;;;;;;5049803;28;20037;-71
2024/03/10 03:13:30;;;;;;;35.28;19.15;;;5.20;99.90;;;;;;5051266;28;20045;-71
2024/03/10 03:15:59;;;;;;;35.42;18.52;;;5.20;99.90;;;;;;5051438;28;20112;-71
2024/03/10 03:18:25;;;;;;;36.83;20.10;;;5.20;99.90;;;;;;5051439;28;20045;-71
2024/03/10 03:20:50;;;;;;;37.40;20.08;;;5.20;99.90;;;;;;5049875;28;20083;-71
2024/03/10 03:23:16;;;;;;;35.30;20.98;;;5.30;99.90;;;;;;5050768;28;20044;-71
2024/03/10 03:25:42;;;;;;;36.78;20.48;;;5.20;99.90;;;;;;5051137;28;20120;-71
2024/03/10 03:28:07;;;;;;;37.35;20.35;;;5.30;99.90;;;;;;5051314;28;20485;-71
2024/03/10 03:30:33;;;;;;;38.10;21.20;;;5.20;99.90;;;;;;5049495;28;20103;-71
2024/03/10 03:32:59;;;;;;;32.72;19.23;;;5.20;99.90;;;;;;5049380;28;20041;-71
2024/03/10 03:35:24;;;;;;;37.47;20.48;;;5.20;99.90;;;;;;5051095;28;20045;-71
2024/03/10 03:37:50;;;;;;;37.60;21.38;;;5.20;99.90;;;;;;5051149;28;20033;-71
2024/03/10 03:40:16;;;;;;;33.67;20.23;;;5.20;99.90;;;;;;5049352;28;20037;-71
2024/03/10 03:42:42;;;;;;;40.08;22.38;;;5.10;99.90;;;;;;5050481;28;20065;-71
2024/03/10 03:45:08;;;;;;;42.05;22.58;;;5.20;99.90;;;;;;5055029;28;20033;-71
2024/03/10 03:47:34;;;;;;;37.88;21.10;;;5.20;99.90;;;;;;5054751;28;20511;-71
2024/03/10 03:50:00;;;;;;;41.08;23.50;;;5.20;99.90;;;;;;5054518;28;20049;-71
2024/03/10 03:52:26;;;;;;;36.75;21.65;;;5.20;99.90;;;;;;5053012;28;20116;-71
2024/03/10 03:54:51;;;;;;;42.00;22.98;;;5.20;99.90;;;;;;5054641;28;20084;-71
2024/03/10 03:57:22;;;;;;;39.55;22.30;;;5.20;99.90;;;;;;5054637;28;20041;-71
2024/03/10 03:59:48;;;;;;;41.35;22.67;;;5.20;99.90;;;;;;5053324;28;20129;-71
2024/03/10 04:02:15;;;;;;;41.20;24.27;;;5.20;99.90;;;;;;5054189;28;20064;-71
2024/03/10 04:04:41;;;;;;;40.88;22.27;;;5.20;99.90;;;;;;5053503;28;20106;-71
2024/03/10 04:07:07;;;;;;;40.72;21.77;;;5.10;99.90;;;;;;5053193;28;20041;-71
2024/03/10 04:09:32;;;;;;;45.38;24.73;;;5.20;99.90;;;;;;5052906;28;20045;-71
2024/03/10 04:11:59;;;;;;;41.85;22.75;;;5.20;99.90;;;;;;5052503;28;20522;-71
2024/03/10 04:14:26;;;;;;;43.90;23.48;;;5.20;99.90;;;;;;5054515;28;20390;-71
2024/03/10 04:16:52;;;;;;;46.13;24.67;;;5.10;99.90;;;;;;5054393;28;20403;-71
2024/03/10 04:19:18;;;;;;;47.53;25.55;;;5.10;99.90;;;;;;5054010;28;20124;-71
2024/03/10 04:21:44;;;;;;;39.03;24.10;;;5.20;99.90;;;;;;5052351;28;20056;-71
2024/03/10 04:24:10;;;;;;;44.03;25.15;;;5.20;99.90;;;;;;5054055;28;20151;-71
2024/03/10 04:26:41;;;;;;;41.70;24.63;;;5.20;99.90;;;;;;5052814;28;20051;-71
2024/03/10 04:29:08;;;;;;;39.25;23.67;;;5.20;99.90;;;;;;5052514;28;20041;-71
2024/03/10 04:31:34;;;;;;;43.13;24.17;;;5.10;99.90;;;;;;5053555;28;20033;-71
2024/03/10 04:34:00;;;;;;;45.47;24.27;;;5.10;99.90;;;;;;5054018;28;20078;-71
2024/03/10 04:36:28;;;;;;;48.20;26.05;;;5.10;99.90;;;;;;5053836;28;20420;-71
2024/03/10 04:38:55;;;;;;;47.78;27.20;;;5.10;99.90;;;;;;5053666;28;20527;-71
2024/03/10 04:41:21;;;;;;;48.30;26.15;;;5.10;99.90;;;;;;5053417;28;20052;-71
2024/03/10 04:43:47;;;;;;;45.53;25.67;;;5.10;99.90;;;;;;5053898;28;20040;-71
2024/03/10 04:46:13;;;;;;;44.55;25.23;;;5.10;99.90;;;;;;5053805;28;20128;-71
2024/03/10 04:48:38;;;;;;;47.30;28.42;;;5.10;99.90;;;;;;5052282;28;20500;-71
2024/03/10 04:51:04;;;;;;;43.95;25.55;;;5.10;99.90;;;;;;5053516;28;20039;-71
2024/03/10 04:53:30;;;;;;;49.53;24.90;;;5.20;99.90;;;;;;5052700;28;20052;-71
2024/03/10 04:55:55;;;;;;;45.20;26.23;;;5.10;99.90;;;;;;5053713;28;20072;-71
2024/03/10 04:58:22;;;;;;;52.58;28.38;;;5.20;99.90;;;;;;5053697;28;20120;-71
2024/03/10 05:00:48;;;;;;;46.05;24.52;;;5.10;99.90;;;;;;5053355;28;20045;-71
2024/03/10 05:03:15;;;;;;;48.88;25.73;;;5.10;99.90;;;;;;5051787;28;20036;-71
2024/03/10 05:05:40;;;;;;;44.88;24.38;;;5.00;99.90;;;;;;5052069;28;20128;-71
2024/03/10 05:08:08;;;;;;;47.25;25.27;;;5.00;99.90;;;;;;5053269;28;20120;-71
2024/03/10 05:10:34;;;;;;;44.42;25.00;;;5.10;99.90;;;;;;5053098;28;20041;-71
2024/03/10 05:13:00;;;;;;;46.50;27.73;;;5.00;99.90;;;;;;5052991;28;20045;-71
2024/03/10 05:15:26;;;;;;;51.83;28.17;;;5.00;99.90;;;;;;5051922;28;20095;-71
2024/03/10 05:17:52;;;;;;;45.45;24.67;;;5.00;99.90;;;;;;5053205;28;20033;-71
2024/03/10 05:20:20;;;;;;;47.38;26.63;;;5.00;99.90;;;;;;5052682;28;20043;-71
2024/03/10 05:22:45;;;;;;;46.47;25.00;;;4.90;99.90;;;;;;5052772;28;20048;-71
2024/03/10 05:25:11;;;;;;;45.97;25.00;;;4.90;99.90;;;;;;5053238;28;20040;-71
2024/03/10 05:27:41;;;;;;;47.50;25.73;;;4.90;99.90;;;;;;5053057;28;20053;-71
2024/03/10 05:30:07;;;;;;;52.13;25.92;;;4.90;99.90;;;;;;5052630;28;20122;-71
2024/03/10 05:32:33;;;;;;;50.15;26.02;;;4.90;99.90;;;;;;5052291;28;20044;-71
2024/03/10 05:34:58;;;;;;;46.97;25.02;;;4.90;99.90;;;;;;5052787;28;20041;-71
2024/03/10 05:37:24;;;;;;;49.50;26.80;;;4.90;99.90;;;;;;5052952;28;20033;-71
2024/03/10 05:39:50;;;;;;;44.83;24.38;;;4.80;99.90;;;;;;5052629;28;20091;-71
2024/03/10 05:42:15;;;;;;;47.13;26.58;;;4.70;99.90;;;;;;5052302;28;20084;-71
2024/03/10 05:44:41;;;;;;;51.53;28.00;;;4.80;99.90;;;;;;5052526;28;20120;-71
2024/03/10 05:47:07;;;;;;;46.42;26.63;;;4.70;99.90;;;;;;5052273;28;20040;-71
2024/03/10 05:49:32;;;;;;;48.63;26.15;;;4.70;99.90;;;;;;5050790;28;20389;-71
2024/03/10 05:51:58;;;;;;;52.20;26.17;;;4.60;99.90;;;;;;5050672;28;20516;-71
2024/03/10 05:54:25;;;;;;;46.67;25.95;;;4.60;99.90;;;;;;5052510;28;20087;-71
2024/03/10 05:56:51;;;;;;;49.92;28.65;;;4.60;99.90;;;;;;5052228;28;20390;-71
2024/03/10 05:59:16;;;;;;;52.65;28.02;;;4.60;99.90;;;;;;5051903;28;20075;-71
2024/03/10 06:01:42;;;;;;;50.90;28.38;;;4.50;99.90;;;;;;5051356;28;20037;-71
2024/03/10 06:04:08;;;;;;;52.13;28.75;;;4.50;99.90;;;;;;5052286;28;20124;-71
2024/03/10 06:06:33;;;;;;;53.83;28.77;;;4.40;99.90;;;;;;5039943;28;20120;-71
2024/03/10 06:09:00;;;;;;;56.55;27.80;;;4.50;99.90;;;;;;5032064;28;20045;-71
2024/03/10 06:11:26;;;;;;;54.00;28.40;;;4.40;99.90;;;;;;5031646;28;20045;-71
2024/03/10 06:13:52;;;;;;;46.70;25.95;;;4.40;99.90;;;;;;5032342;28;20033;-71
2024/03/10 06:16:18;;;;;;;53.47;29.17;;;4.30;99.90;;;;;;5030803;28;20604;-71
2024/03/10 06:26:53;;;;;;;61.30;31.33;;;4.40;99.90;;;;;;5031936;28;20042;-71
2024/03/10 06:29:19;;;;;;;58.63;29.10;;;4.30;99.90;;;;;;5030492;28;20045;-71
2024/03/10 06:31:45;;;;;;;56.60;29.42;;;4.30;99.90;;;;;;5031670;28;20454;-71
2024/03/10 06:34:11;;;;;;;57.80;28.63;;;4.30;99.90;;;;;;5031976;28;20033;-71
2024/03/10 06:36:37;;;;;;;55.65;29.73;;;4.30;99.90;;;;;;5032009;28;20408;-72
2024/03/10 06:39:06;;;;;;;55.42;29.85;;;4.20;99.90;;;;;;5031668;28;20041;-71
2024/03/10 06:41:34;;;;;;;59.45;29.50;;;4.20;99.90;;;;;;5031167;28;20041;-71
2024/03/10 06:44:01;;;;;;;51.53;28.17;;;4.30;99.90;;;;;;5032069;28;20041;-71
2024/03/10 06:46:26;;;;;;;51.55;29.02;;;4.40;99.90;;;;;;5031824;28;20385;-71
2024/03/10 06:48:52;;;;;;;56.25;28.25;;;4.30;99.90;;;;;;5031475;28;20037;-71
2024/03/10 06:51:21;;;;;;;56.90;28.60;;;4.40;99.90;;;;;;5030038;28;20064;-71
2024/03/10 06:53:47;;;;;;;52.78;28.20;;;4.30;99.90;;;;;;5031644;28;20112;-71
2024/03/10 06:56:12;;;;;;;54.80;28.95;;;4.30;99.90;;;;;;5031437;28;20045;-71
2024/03/10 06:58:38;;;;;;;56.08;29.95;;;4.40;99.90;;;;;;5013591;28;20072;-71
2024/03/10 07:01:07;;;;;;;53.63;28.23;;;4.40;99.90;;;;;;5031589;28;20091;-71
2024/03/10 07:03:33;;;;;;;51.30;27.77;;;4.30;99.90;;;;;;5031407;28;20117;-71
2024/03/10 07:06:00;;;;;;;57.45;29.13;;;4.30;99.90;;;;;;5030473;28;20555;-71
2024/03/10 07:08:27;;;;;;;61.65;30.33;;;4.30;99.90;;;;;;5030986;28;20045;-71
2024/03/10 07:10:53;;;;;;;59.38;29.40;;;4.40;99.90;;;;;;5029898;28;20052;-71
2024/03/10 07:13:18;;;;;;;55.22;27.23;;;4.30;99.90;;;;;;5031104;28;20037;-71
2024/03/10 07:15:46;;;;;;;56.83;29.50;;;4.50;99.90;;;;;;5030025;28;20041;-71
2024/03/10 07:18:12;;;;;;;53.85;28.67;;;4.40;99.90;;;;;;5035147;28;20049;-71
2024/03/10 07:20:39;;;;;;;53.60;29.15;;;4.40;99.90;;;;;;5035225;28;20043;-71
2024/03/10 07:23:05;;;;;;;52.67;29.17;;;4.50;99.90;;;;;;5033492;28;20045;-71
2024/03/10 07:25:31;;;;;;;50.88;29.35;;;4.50;99.90;;;;;;5035245;28;20455;-71
2024/03/10 07:27:57;;;;;;;61.80;31.55;;;4.60;99.90;;;;;;5035401;28;20044;-71
2024/03/10 07:30:23;;;;;;;51.90;26.23;;;4.50;99.90;;;;;;5033602;28;20038;-71
2024/03/10 07:32:48;;;;;;;54.63;27.85;;;4.60;99.90;;;;;;5034850;28;20091;-71
2024/03/10 07:35:14;;;;;;;52.30;26.83;;;4.60;99.90;;;;;;5035117;28;20030;-71
2024/03/10 07:37:41;;;;;;;54.75;29.48;;;4.60;99.90;;;;;;5035050;28;20460;-71
2024/03/10 07:40:15;;;;;;;56.03;28.15;;;4.70;99.90;;;;;;5034977;28;20092;-71
2024/03/10 07:42:42;;;;;;;59.72;30.13;;;4.60;99.90;;;;;;5034668;28;20071;-71
2024/03/10 07:45:09;;;;;;;56.17;27.80;;;4.70;99.90;;;;;;5034910;28;20045;-71
2024/03/10 07:47:43;;;;;;;55.05;27.63;;;4.70;99.90;;;;;;5034989;28;20045;-71
2024/03/10 07:50:11;;;;;;;56.63;28.23;;;4.80;99.90;;;;;;5034403;28;20516;-71
2024/03/10 07:52:39;;;;;;;58.97;29.95;;;4.80;99.90;;;;;;5034501;28;20095;-71
2024/03/10 07:55:05;;;;;;;59.67;29.52;;;5.00;99.90;;;;;;5033794;28;20045;-71
2024/03/10 07:57:34;;;;;;;59.92;29.30;;;5.00;99.90;;;;;;5034634;28;20038;-71
2024/03/10 08:00:01;;;;;;;53.95;28.67;;;5.00;99.90;;;;;;5034581;28;20037;-71
2024/03/10 08:02:27;;;;;;;55.20;29.00;;;5.00;99.90;;;;;;5034318;28;20449;-71
2024/03/10 08:04:53;;;;;;;53.85;28.70;;;5.00;99.90;;;;;;5034579;28;20044;-71
2024/03/10 08:07:18;;;;;;;51.55;27.30;;;5.10;99.90;;;;;;5034530;28;20052;-71
2024/03/10 08:09:44;;;;;;;53.80;29.05;;;5.10;99.90;;;;;;5034182;28;20056;-71
2024/03/10 08:12:11;;;;;;;54.97;27.45;;;5.20;99.90;;;;;;5034299;28;20105;-71
2024/03/10 08:14:39;;;;;;;52.58;29.42;;;5.10;99.90;;;;;;5034550;28;20039;-71
2024/03/10 08:17:05;;;;;;;52.80;27.42;;;5.30;99.90;;;;;;5034342;28;20559;-72
2024/03/10 08:19:32;;;;;;;53.40;28.88;;;5.30;99.90;;;;;;5032985;28;20045;-71
2024/03/10 08:21:58;;;;;;;54.40;29.33;;;5.30;99.90;;;;;;5034070;28;20060;-71
2024/03/10 08:24:25;;;;;;;54.90;29.90;;;5.30;99.90;;;;;;5034464;28;20041;-71
2024/03/10 08:26:51;;;;;;;50.28;28.20;;;5.30;99.90;;;;;;5034206;28;20084;-71
2024/03/10 08:29:17;;;;;;;53.25;29.23;;;5.30;99.90;;;;;;5032951;28;20519;-71
2024/03/10 08:31:43;;;;;;;61.88;29.88;;;5.40;99.90;;;;;;5033505;28;20033;-71
2024/03/10 08:34:09;;;;;;;53.28;28.10;;;5.40;99.90;;;;;;5032836;28;20046;-71
2024/03/10 08:36:36;;;;;;;48.30;27.63;;;5.50;99.90;;;;;;5034143;28;20117;-71
2024/03/10 08:39:07;;;;;;;56.88;28.75;;;5.50;99.90;;;;;;5032496;28;20056;-71
2024/03/10 08:41:37;;;;;;;53.55;28.77;;;5.60;99.90;;;;;;5043984;28;20041;-71
2024/03/10 08:44:03;;;;;;;52.78;27.00;;;5.60;99.90;;;;;;5051153;28;20080;-71
2024/03/10 08:46:30;;;;;;;58.33;30.58;;;5.60;99.90;;;;;;5053686;28;20094;-71
2024/03/10 08:48:56;;;;;;;56.10;29.40;;;5.70;99.90;;;;;;5053428;28;20519;-71
2024/03/10 08:51:22;;;;;;;53.00;29.48;;;5.80;99.90;;;;;;5051851;28;20055;-71
2024/03/10 08:53:49;;;;;;;52.17;28.75;;;5.80;99.90;;;;;;5053700;28;20044;-71
2024/03/10 08:56:14;;;;;;;53.38;27.63;;;5.90;99.90;;;;;;5047458;28;20037;-72
2024/03/10 08:58:41;;;;;;;52.28;28.58;;;6.00;99.90;;;;;;5050147;28;20105;-71
2024/03/10 09:01:07;;;;;;;54.83;28.73;;;6.00;99.90;;;;;;5052595;28;20048;-71
2024/03/10 09:03:34;;;;;;;43.50;25.90;;;6.10;99.90;;;;;;5053254;28;20103;-70
2024/03/10 09:06:00;;;;;;;51.30;29.45;;;6.20;99.90;;;;;;5053218;28;20425;-72
2024/03/10 09:08:26;;;;;;;53.60;29.02;;;6.20;99.90;;;;;;5051573;28;20053;-71
2024/03/10 09:10:52;;;;;;;52.58;30.17;;;6.30;99.90;;;;;;5041854;28;20035;-72
2024/03/10 09:13:19;;;;;;;52.97;30.58;;;6.30;99.90;;;;;;5045061;28;20041;-71
2024/03/10 09:15:45;;;;;;;56.08;30.10;;;6.30;99.90;;;;;;5052638;28;20040;-71
2024/03/10 09:18:11;;;;;;;53.67;28.83;;;6.40;99.90;;;;;;5051673;28;20524;-70
2024/03/10 09:20:39;;;;;;;49.45;26.83;;;6.50;99.90;;;;;;5051398;28;20417;-71
2024/03/10 09:23:05;;;;;;;56.42;29.73;;;6.60;99.90;;;;;;5052552;28;20112;-71
2024/03/10 09:25:30;;;;;;;51.45;27.88;;;6.60;99.90;;;;;;5052805;28;20041;-71
2024/03/10 09:27:56;;;;;;;50.28;29.63;;;6.80;99.90;;;;;;5052493;28;20079;-71
2024/03/10 09:30:23;;;;;;;51.50;29.08;;;6.80;99.90;;;;;;5052459;28;20039;-71
2024/03/10 09:32:50;;;;;;;51.05;28.15;;;6.80;99.90;;;;;;5052243;28;20099;-71
2024/03/10 09:35:28;;;;;;;50.13;27.00;;;6.90;99.90;;;;;;5051330;28;20079;-71
2024/03/10 09:37:58;;;;;;;51.67;29.25;;;7.00;99.90;;;;;;5052568;28;20037;-71
2024/03/10 09:40:29;;;;;;;52.00;28.50;;;7.00;99.90;;;;;;5051056;28;20029;-71
2024/03/10 09:43:05;;;;;;;50.05;27.55;;;7.00;99.90;;;;;;5052064;28;20041;-71
2024/03/10 09:45:48;;;;;;;52.40;29.83;;;7.00;99.90;;;;;;5051115;28;20124;-71
2024/03/10 09:48:14;;;;;;;56.95;30.85;;;7.10;99.90;;;;;;5051294;28;20037;-71
2024/03/10 09:50:42;;;;;;;52.08;28.38;;;7.20;99.90;;;;;;5052103;28;20091;-71
2024/03/10 09:53:08;;;;;;;48.05;28.35;;;7.20;99.90;;;;;;5051538;28;20041;-71
2024/03/10 09:55:34;;;;;;;48.78;27.63;;;7.30;99.90;;;;;;5051171;28;20555;-72
2024/03/10 09:58:10;;;;;;;55.45;30.92;;;7.30;99.90;;;;;;5052250;28;20048;-71
2024/03/10 10:00:38;;;;;;;51.17;29.05;;;7.40;99.90;;;;;;5050685;28;20041;-71
2024/03/10 10:03:09;;;;;;;55.17;29.58;;;7.40;99.90;;;;;;5051677;28;20500;-71
2024/03/10 10:05:57;;;;;;;48.58;27.55;;;7.50;99.90;;;;;;5051832;28;20041;-72
2024/03/10 10:08:23;;;;;;;51.85;29.13;;;7.60;99.90;;;;;;5052032;28;20047;-71
2024/03/10 10:10:50;;;;;;;54.30;29.17;;;7.70;99.90;;;;;;5050046;28;20403;-72
2024/03/10 10:13:22;;;;;;;46.58;27.33;;;7.70;99.90;;;;;;5051576;28;20048;-71
2024/03/10 10:15:48;;;;;;;52.07;28.10;;;7.90;99.90;;;;;;5050792;28;20395;-71
2024/03/10 10:18:15;;;;;;;55.22;30.20;;;7.90;99.90;;;;;;5048772;28;20141;-73
2024/03/10 10:21:06;;;;;;;48.67;29.40;;;8.00;99.90;;;;;;5051455;28;20037;-72
2024/03/10 10:23:32;;;;;;;49.42;27.88;;;8.00;99.90;;;;;;5040898;28;20045;-71
2024/03/10 10:26:12;;;;;;;52.08;29.00;;;8.10;99.90;;;;;;5051625;28;20029;-72
2024/03/10 10:28:41;;;;;;;47.15;29.33;;;8.10;99.90;;;;;;5040517;28;20393;-72
2024/03/10 10:31:15;;;;;;;47.95;28.75;;;8.20;99.90;;;;;;5051179;28;20403;-71
2024/03/10 10:33:45;;;;;;;50.63;30.27;;;8.20;99.90;;;;;;5050262;28;20413;-71
2024/03/10 10:36:11;;;;;;;44.90;26.85;;;8.30;99.90;;;;;;5051488;28;20071;-72
2024/03/10 10:38:47;;;;;;;48.70;28.85;;;8.30;99.90;;;;;;5051057;28;20132;-72
2024/03/10 10:41:13;;;;;;;53.97;31.52;;;8.30;99.90;;;;;;5049770;28;20094;-72
2024/03/10 10:43:39;;;;;;;48.60;29.15;;;8.30;99.90;;;;;;5051394;28;20036;-72
2024/03/10 10:46:18;;;;;;;45.50;27.88;;;8.40;99.90;;;;;;5050138;28;20055;-71
2024/03/10 10:48:45;;;;;;;55.88;31.55;;;8.40;99.90;;;;;;5051099;28;20044;-72
2024/03/10 10:51:11;;;;;;;51.55;29.08;;;8.60;99.90;;;;;;5049125;28;20094;-72
2024/03/10 10:53:41;;;;;;;50.35;30.30;;;8.60;99.90;;;;;;5049649;28;20041;-72
2024/03/10 10:56:11;;;;;;;49.10;28.23;;;8.70;99.90;;;;;;5051376;28;20033;-71
2024/03/10 10:58:36;;;;;;;49.58;28.95;;;8.70;99.90;;;;;;5032045;28;20209;-70
2024/03/10 11:01:07;;;;;;;50.65;28.65;;;8.70;99.90;;;;;;5010526;28;20828;-72
2024/03/10 11:03:37;;;;;;;56.78;28.67;;;8.80;99.90;;;;;;5010066;28;20079;-72
2024/03/10 11:06:02;;;;;;;47.90;29.33;;;8.80;99.90;;;;;;5010103;28;20043;-72
2024/03/10 11:08:40;;;;;;;46.35;28.00;;;8.80;99.90;;;;;;5010010;28;20037;-72
2024/03/10 11:11:06;;;;;;;54.20;31.65;;;9.00;99.90;;;;;;5011416;28;20044;-72
2024/03/10 11:13:33;;;;;;;52.13;29.15;;;9.00;99.90;;;;;;5009731;28;20524;-72
2024/03/10 11:16:20;;;;;;;52.08;28.77;;;9.00;99.90;;;;;;5011157;28;20041;-72
2024/03/10 11:18:46;;;;;;;46.80;29.10;;;9.00;99.90;;;;;;5010046;28;20044;-72
2024/03/10 11:21:19;;;;;;;47.13;28.70;;;9.10;99.90;;;;;;5009756;28;20046;-70
2024/03/10 11:23:47;;;;;;;47.20;27.52;;;9.10;99.90;;;;;;5010891;28;20147;-69
2024/03/10 11:26:20;;;;;;;48.83;28.67;;;9.20;99.90;;;;;;5010974;28;20048;-70
2024/03/10 11:28:53;;;;;;;44.40;26.80;;;9.20;99.90;;;;;;5010083;28;20325;-70
2024/03/10 11:31:35;;;;;;;44.15;26.23;;;9.30;99.90;;;;;;5008255;28;20045;-69
2024/03/10 11:34:04;;;;;;;42.67;28.10;;;9.40;99.90;;;;;;5011135;28;20060;-69
2024/03/10 11:36:37;;;;;;;42.60;27.27;;;9.40;99.90;;;;;;5005446;28;20034;-70
2024/03/10 11:39:04;;;;;;;45.47;27.25;;;9.40;99.90;;;;;;4990466;28;20052;-68
2024/03/10 11:41:31;;;;;;;45.90;27.60;;;9.40;99.90;;;;;;4989293;28;20042;-69
2024/03/10 11:43:58;;;;;;;44.75;26.77;;;9.40;99.90;;;;;;4990535;28;20045;-70
2024/03/10 11:46:26;;;;;;;47.20;27.85;;;9.40;99.90;;;;;;4988063;28;20110;-69
2024/03/10 11:48:56;;;;;;;42.35;26.73;;;9.50;99.90;;;;;;4990809;28;20046;-69
2024/03/10 11:51:28;;;;;;;47.70;27.88;;;9.50;99.90;;;;;;4990933;28;20279;-69
2024/03/10 11:53:57;;;;;;;46.42;27.63;;;9.50;99.90;;;;;;4989555;28;20281;-69
2024/03/10 11:56:24;;;;;;;46.20;28.45;;;9.50;99.90;;;;;;4972114;28;20038;-70
2024/03/10 11:58:57;;;;;;;42.63;26.17;;;9.60;99.90;;;;;;5019414;28;20095;-70
2024/03/10 12:01:23;;;;;;;;;;;9.60;99.90;;;;;;5050092;28;20407;-70
2024/03/10 12:03:53;;;;;;;42.83;26.05;;;9.70;99.90;;;;;;5051234;28;20319;-70
2024/03/10 12:06:20;;;;;;;44.63;27.30;;;9.70;99.90;;;;;;5054523;28;20098;-71
2024/03/10 12:08:46;;;;;;;41.78;24.25;;;9.80;99.90;;;;;;5054165;28;20614;-70
2024/03/10 12:11:13;;;;;;;47.53;27.58;;;9.90;99.90;;;;;;5053875;28;20504;-70
2024/03/10 12:13:43;;;;;;;42.08;25.35;;;10.10;99.90;;;;;;5054583;28;20063;-70
2024/03/10 12:16:10;;;;;;;37.13;23.73;;;10.20;99.90;;;;;;5054449;28;20037;-70
2024/03/10 12:18:37;;;;;;;43.97;27.80;;;10.30;99.90;;;;;;5054157;28;20059;-70
2024/03/10 12:21:10;;;;;;;40.70;26.27;;;10.30;99.90;;;;;;5054142;28;20183;-70
2024/03/10 12:23:37;;;;;;;35.97;23.15;;;10.40;99.90;;;;;;5054380;28;20044;-70
2024/03/10 12:26:09;;;;;;;36.65;23.52;;;10.30;99.90;;;;;;5053696;28;20043;-70
2024/03/10 12:28:39;;;;;;;37.42;23.83;;;10.30;99.90;;;;;;5053438;28;20048;-70
2024/03/10 12:31:09;;;;;;;36.40;23.13;;;10.30;99.90;;;;;;5066730;28;20033;-70
2024/03/10 12:33:37;;;;;;;37.60;24.10;;;10.40;99.90;;;;;;5051449;28;20130;-70
2024/03/10 12:36:04;;;;;;;36.50;23.45;;;10.50;99.90;;;;;;5053545;28;20574;-70
2024/03/10 12:38:30;;;;;;;34.50;23.00;;;10.50;99.90;;;;;;5053688;28;20041;-70
2024/03/10 12:40:57;;;;;;;35.22;22.52;;;10.50;99.90;;;;;;5053928;28;20052;-70
2024/03/10 12:43:23;;;;;;;37.92;23.35;;;10.50;99.90;;;;;;5053540;28;20065;-70
2024/03/10 12:45:49;;;;;;;42.60;24.75;;;10.50;99.90;;;;;;5054078;28;20037;-70
2024/03/10 12:48:15;;;;;;;37.22;22.92;;;10.50;99.90;;;;;;5053574;28;20044;-70
2024/03/10 12:50:41;;;;;;;39.10;24.85;;;10.50;99.90;;;;;;5053708;28;20037;-71
2024/03/10 12:53:07;;;;;;;39.38;24.80;;;10.50;99.90;;;;;;5053543;28;20412;-73
2024/03/10 12:55:34;;;;;;;36.95;24.17;;;10.50;99.90;;;;;;5053781;28;20033;-72
2024/03/10 12:58:00;;;;;;;36.00;23.17;;;10.50;99.90;;;;;;5053790;28;20140;-72
2024/03/10 13:00:30;;;;;;;37.72;24.77;;;10.50;99.90;;;;;;5053197;28;20045;-72
2024/03/10 13:02:57;;;;;;;36.25;23.92;;;10.50;99.90;;;;;;5053104;28;20041;-72